Tuesday, January 17, 2017, 3:50 AM EST
Back to Local

KMTP, Montauk Airport

Location: Montauk, NY, United States Lat: 41.067
Local Time: 3:50 AM EST ( 8:50 GMT) Lon: -71.917
Time Zone: US/Eastern Elev: 6 ft

Show me the last for .
Show Coded

Time T Td Feel RH Dir Speed Gust Alt SLP Vis Weather Sky Remarks
2017-01-17 02:54 40 29 35 64 260° 7 - 30.23 30.23 0 None
2017-01-17 01:54 40 30 33 67 260° 12 - 30.25 30.24 0 None
2017-01-17 00:54 40 30 36 67 240° 6 - 30.26 30.25 0 6-hr Min Temp (1am): 37.0°F
6-hr Max Temp (1am): 39.9°F
2017-01-16 23:54 39 30 33 69 240° 8 - 30.27 30.27 0 24-hr Min Temp (12am): 19.9°F
24-hr Max Temp (12am): 39.9°F
2017-01-16 22:54 39 30 34 69 240° 7 - 30.29 30.29 0 None
2017-01-16 21:54 38 30 33 72 230° 6 - 30.32 30.31 0 None
2017-01-16 20:54 37 27 31 66 240° 8 - 30.33 30.33 0 None
2017-01-16 19:54 37 28 32 69 240° 7 - 30.33 30.33 0 None
2017-01-16 18:54 37 28 32 69 230° 6 - 30.34 30.33 0 6-hr Min Temp (7pm): 36.0°F
6-hr Max Temp (7pm): 39.9°F
2017-01-16 17:54 36 27 32 69 220° 5 - 30.35 30.35 0 None
2017-01-16 16:54 37 25 33 61 230° 5 - 30.35 30.35 0 None
2017-01-16 15:54 38 26 33 61 230° 6 - 30.36 30.36 0 None
2017-01-16 14:54 39 24 35 54 260° 6 - 30.37 30.36 0 None
2017-01-16 13:54 39 24 34 54 Variable 7 - 30.37 30.37 0 None
2017-01-16 12:54 39 22 32 49 260° 12 - 30.40 30.40 0 6-hr Min Temp (1pm): 19.9°F
6-hr Max Temp (1pm): 39.0°F
2017-01-16 11:54 37 24 32 59 260° 7 - 30.43 30.42 0 None
2017-01-16 10:54 39 21 35 48 240° 6 - 30.45 30.45 0 None
2017-01-16 09:54 38 23 - 54 - Calm - 30.46 30.45 0 None
2017-01-16 08:54 34 29 - 81 - Calm - 30.45 30.45 0 None
2017-01-16 07:54 24 20 - 83 - Calm - 30.45 30.45 0 None
2017-01-16 06:54 21 17 - 84 - Calm - 30.44 30.44 0 6-hr Min Temp (7am): 21.0°F
6-hr Max Temp (7am): 34.0°F
2017-01-16 05:54 22 18 - 84 - Calm - 30.44 30.44 0 None
2017-01-16 04:54 27 20 - 74 - Calm - 30.43 30.42 0 None
2017-01-16 03:54 32 22 27 65 360° 5 - 30.44 30.44 0 None

Support USWX by starting your Amazon purchase here.